sensor_id;sensor_type;location;lat;lon;timestamp;pressure;altitude;pressure_sealevel;temperature;humidity
15314;BME280;7757;52.626;4.746;2023-09-08T00:02:16;101572.06;;;27.85;57.93
15314;BME280;7757;52.626;4.746;2023-09-08T00:04:41;101577.56;;;27.85;57.83
15314;BME280;7757;52.626;4.746;2023-09-08T00:07:07;101573.44;;;27.83;57.65
15314;BME280;7757;52.626;4.746;2023-09-08T00:09:32;101578.41;;;27.81;57.49
15314;BME280;7757;52.626;4.746;2023-09-08T00:11:58;101506.56;;;27.43;57.91
15314;BME280;7757;52.626;4.746;2023-09-08T00:14:24;101569.03;;;27.82;57.70
15314;BME280;7757;52.626;4.746;2023-09-08T00:16:49;101567.41;;;27.81;57.82
15314;BME280;7757;52.626;4.746;2023-09-08T00:19:16;101572.09;;;27.80;57.61
15314;BME280;7757;52.626;4.746;2023-09-08T00:21:41;101574.31;;;27.78;57.69
15314;BME280;7757;52.626;4.746;2023-09-08T00:24:08;101565.50;;;27.76;58.01
15314;BME280;7757;52.626;4.746;2023-09-08T00:26:34;101563.31;;;27.78;58.03
15314;BME280;7757;52.626;4.746;2023-09-08T00:28:59;101577.84;;;27.79;57.86
15314;BME280;7757;52.626;4.746;2023-09-08T00:31:25;101575.66;;;27.76;57.60
15314;BME280;7757;52.626;4.746;2023-09-08T00:33:51;101575.66;;;27.76;57.89
15314;BME280;7757;52.626;4.746;2023-09-08T00:36:16;101578.41;;;27.76;57.81
15314;BME280;7757;52.626;4.746;2023-09-08T00:38:41;101582.28;;;27.75;57.65
15314;BME280;7757;52.626;4.746;2023-09-08T00:41:07;101581.47;;;27.74;57.88
15314;BME280;7757;52.626;4.746;2023-09-08T00:43:33;101575.13;;;27.74;57.87
15314;BME280;7757;52.626;4.746;2023-09-08T00:45:58;101575.44;;;27.72;57.88
15314;BME280;7757;52.626;4.746;2023-09-08T00:48:25;101571.84;;;27.72;57.93
15314;BME280;7757;52.626;4.746;2023-09-08T00:50:51;101576.78;;;27.69;57.79
15314;BME280;7757;52.626;4.746;2023-09-08T00:53:16;101487.44;;;27.13;57.87
15314;BME280;7757;52.626;4.746;2023-09-08T00:55:42;101581.75;;;27.67;57.94
15314;BME280;7757;52.626;4.746;2023-09-08T00:58:09;101578.19;;;27.67;57.93
15314;BME280;7757;52.626;4.746;2023-09-08T01:00:35;101551.84;;;27.56;57.82
15314;BME280;7757;52.626;4.746;2023-09-08T01:03:01;101576.81;;;27.64;57.76
15314;BME280;7757;52.626;4.746;2023-09-08T01:05:27;101570.50;;;27.64;58.01
15314;BME280;7757;52.626;4.746;2023-09-08T01:07:53;101562.25;;;27.64;58.05
15314;BME280;7757;52.626;4.746;2023-09-08T01:10:19;101565.56;;;27.61;57.53
15314;BME280;7757;52.626;4.746;2023-09-08T01:12:44;101562.28;;;27.59;58.01
15314;BME280;7757;52.626;4.746;2023-09-08T01:15:10;101559.00;;;27.52;57.95
15314;BME280;7757;52.626;4.746;2023-09-08T01:17:35;101565.84;;;27.59;57.83
15314;BME280;7757;52.626;4.746;2023-09-08T01:20:25;101575.19;;;27.58;57.79
15314;BME280;7757;52.626;4.746;2023-09-08T01:25:31;101572.75;;;27.57;57.74
15314;BME280;7757;52.626;4.746;2023-09-08T01:28:00;101575.22;;;27.53;57.84
15314;BME280;7757;52.626;4.746;2023-09-08T01:30:28;101572.75;;;27.57;57.79
15314;BME280;7757;52.626;4.746;2023-09-08T01:32:54;101493.19;;;27.11;57.78
15314;BME280;7757;52.626;4.746;2023-09-08T01:35:20;101565.91;;;27.54;58.08
15314;BME280;7757;52.626;4.746;2023-09-08T01:37:47;101569.19;;;27.51;57.96
15314;BME280;7757;52.626;4.746;2023-09-08T01:40:13;101567.25;;;27.52;57.85
15314;BME280;7757;52.626;4.746;2023-09-08T01:42:39;101570.81;;;27.52;58.09
15314;BME280;7757;52.626;4.746;2023-09-08T01:45:05;101507.19;;;27.15;58.01
15314;BME280;7757;52.626;4.746;2023-09-08T01:47:31;101565.06;;;27.54;57.79
15314;BME280;7757;52.626;4.746;2023-09-08T01:49:57;101565.88;;;27.49;58.04
15314;BME280;7757;52.626;4.746;2023-09-08T01:52:24;101567.00;;;27.48;57.28
15314;BME280;7757;52.626;4.746;2023-09-08T01:54:49;101505.28;;;27.10;58.00
15314;BME280;7757;52.626;4.746;2023-09-08T01:57:15;101561.78;;;27.47;57.77
15314;BME280;7757;52.626;4.746;2023-09-08T01:59:40;101554.09;;;27.44;57.83
15314;BME280;7757;52.626;4.746;2023-09-08T02:02:06;101553.00;;;27.40;57.86
15314;BME280;7757;52.626;4.746;2023-09-08T02:04:32;101554.09;;;27.44;57.94
15314;BME280;7757;52.626;4.746;2023-09-08T02:06:57;101554.94;;;27.44;57.78
15314;BME280;7757;52.626;4.746;2023-09-08T02:09:36;101505.28;;;27.10;57.90
15314;BME280;7757;52.626;4.746;2023-09-08T02:12:02;101547.22;;;27.41;57.92
15314;BME280;7757;52.626;4.746;2023-09-08T02:14:27;101548.91;;;27.42;57.77
15314;BME280;7757;52.626;4.746;2023-09-08T02:16:56;101545.56;;;27.40;57.75
15314;BME280;7757;52.626;4.746;2023-09-08T02:19:22;101547.78;;;27.38;57.64
15314;BME280;7757;52.626;4.746;2023-09-08T02:21:49;101551.06;;;27.40;57.71
15314;BME280;7757;52.626;4.746;2023-09-08T02:24:14;101543.63;;;27.41;57.85
15314;BME280;7757;52.626;4.746;2023-09-08T02:26:40;101543.94;;;27.39;57.95
15314;BME280;7757;52.626;4.746;2023-09-08T02:29:06;101534.88;;;27.29;57.73
15314;BME280;7757;52.626;4.746;2023-09-08T02:31:31;101547.25;;;27.36;57.98
15314;BME280;7757;52.626;4.746;2023-09-08T02:33:57;101545.31;;;27.37;57.89
15314;BME280;7757;52.626;4.746;2023-09-08T02:36:22;101539.00;;;27.36;57.91
15314;BME280;7757;52.626;4.746;2023-09-08T02:38:54;101549.44;;;27.34;57.84
15314;BME280;7757;52.626;4.746;2023-09-08T02:41:19;101543.41;;;27.32;58.04
15314;BME280;7757;52.626;4.746;2023-09-08T02:43:45;101540.66;;;27.32;57.68
15314;BME280;7757;52.626;4.746;2023-09-08T02:46:10;101535.72;;;27.29;58.03
15314;BME280;7757;52.626;4.746;2023-09-08T02:48:37;101545.31;;;27.32;57.74
15314;BME280;7757;52.626;4.746;2023-09-08T02:51:02;101538.75;;;27.28;58.13
15314;BME280;7757;52.626;4.746;2023-09-08T02:53:28;101546.69;;;27.29;57.86
15314;BME280;7757;52.626;4.746;2023-09-08T02:55:59;101543.13;;;27.29;57.89
15314;BME280;7757;52.626;4.746;2023-09-08T02:58:25;101552.50;;;27.28;57.82
15314;BME280;7757;52.626;4.746;2023-09-08T03:00:51;101524.22;;;27.17;57.93
15314;BME280;7757;52.626;4.746;2023-09-08T03:03:18;101542.84;;;27.25;57.86
15314;BME280;7757;52.626;4.746;2023-09-08T03:05:43;101544.50;;;27.26;57.84
15314;BME280;7757;52.626;4.746;2023-09-08T03:08:09;101545.91;;;27.24;57.67
15314;BME280;7757;52.626;4.746;2023-09-08T03:10:34;101545.06;;;27.23;57.68
15314;BME280;7757;52.626;4.746;2023-09-08T03:13:00;101539.03;;;27.21;57.78
15314;BME280;7757;52.626;4.746;2023-09-08T03:15:26;101532.16;;;27.24;57.68
15314;BME280;7757;52.626;4.746;2023-09-08T03:17:57;101530.50;;;27.23;57.86
15314;BME280;7757;52.626;4.746;2023-09-08T03:20:26;101535.47;;;27.21;57.74
15314;BME280;7757;52.626;4.746;2023-09-08T03:22:52;101531.63;;;27.16;58.03
15314;BME280;7757;52.626;4.746;2023-09-08T03:25:18;101530.28;;;27.19;57.79
15314;BME280;7757;52.626;4.746;2023-09-08T03:27:43;101528.31;;;27.20;58.00
15314;BME280;7757;52.626;4.746;2023-09-08T03:30:09;101520.63;;;27.16;57.69
15314;BME280;7757;52.626;4.746;2023-09-08T03:32:36;101520.06;;;27.20;57.71
15314;BME280;7757;52.626;4.746;2023-09-08T03:35:01;101511.59;;;27.16;57.95
15314;BME280;7757;52.626;4.746;2023-09-08T03:37:26;101411.78;;;26.51;57.78
15314;BME280;7757;52.626;4.746;2023-09-08T03:39:52;101504.75;;;27.08;57.74
15314;BME280;7757;52.626;4.746;2023-09-08T03:42:18;101520.41;;;27.13;58.08
15314;BME280;7757;52.626;4.746;2023-09-08T03:44:44;101517.66;;;27.13;57.81
15314;BME280;7757;52.626;4.746;2023-09-08T03:47:09;101514.34;;;27.11;57.63
15314;BME280;7757;52.626;4.746;2023-09-08T03:49:34;101507.78;;;27.02;57.87
15314;BME280;7757;52.626;4.746;2023-09-08T03:52:00;101514.91;;;27.08;57.89
15314;BME280;7757;52.626;4.746;2023-09-08T03:54:25;101506.41;;;26.99;58.08
15314;BME280;7757;52.626;4.746;2023-09-08T03:56:51;101504.22;;;27.06;58.00
15314;BME280;7757;52.626;4.746;2023-09-08T03:59:16;101505.03;;;27.02;57.82
15314;BME280;7757;52.626;4.746;2023-09-08T04:01:41;101504.22;;;27.06;57.67
15314;BME280;7757;52.626;4.746;2023-09-08T04:04:07;101503.09;;;27.02;57.88
15314;BME280;7757;52.626;4.746;2023-09-08T04:06:33;101518.50;;;27.03;57.94
15314;BME280;7757;52.626;4.746;2023-09-08T04:08:59;101514.66;;;26.99;57.76
15314;BME280;7757;52.626;4.746;2023-09-08T04:11:24;101506.13;;;26.96;57.30
15314;BME280;7757;52.626;4.746;2023-09-08T04:13:51;101507.78;;;27.02;57.93
15314;BME280;7757;52.626;4.746;2023-09-08T04:16:16;101504.78;;;26.98;58.13
15314;BME280;7757;52.626;4.746;2023-09-08T04:18:42;101505.59;;;26.99;57.93
15314;BME280;7757;52.626;4.746;2023-09-08T04:21:07;101502.88;;;26.94;58.00
15314;BME280;7757;52.626;4.746;2023-09-08T04:23:33;101513.03;;;26.98;57.90
15314;BME280;7757;52.626;4.746;2023-09-08T04:25:58;101506.44;;;26.94;57.69
15314;BME280;7757;52.626;4.746;2023-09-08T04:28:24;101503.41;;;26.96;57.83
15314;BME280;7757;52.626;4.746;2023-09-08T04:30:49;101506.44;;;26.94;58.07
15314;BME280;7757;52.626;4.746;2023-09-08T04:33:15;101510.28;;;26.93;57.80
15314;BME280;7757;52.626;4.746;2023-09-08T04:35:40;101475.16;;;26.70;57.71
15314;BME280;7757;52.626;4.746;2023-09-08T04:38:05;101508.91;;;26.91;57.86
15314;BME280;7757;52.626;4.746;2023-09-08T04:40:31;101502.59;;;26.90;57.94
15314;BME280;7757;52.626;4.746;2023-09-08T04:42:56;101504.81;;;26.88;57.86
15314;BME280;7757;52.626;4.746;2023-09-08T04:45:22;101504.53;;;26.85;57.72
15314;BME280;7757;52.626;4.746;2023-09-08T04:47:47;101514.41;;;26.91;57.63
15314;BME280;7757;52.626;4.746;2023-09-08T04:50:13;101506.47;;;26.89;57.91
15314;BME280;7757;52.626;4.746;2023-09-08T04:52:38;101514.13;;;26.87;57.70
15314;BME280;7757;52.626;4.746;2023-09-08T04:55:04;101508.38;;;26.89;57.61
15314;BME280;7757;52.626;4.746;2023-09-08T04:57:29;101499.59;;;26.82;57.77
15314;BME280;7757;52.626;4.746;2023-09-08T04:59:55;101489.41;;;26.72;57.86
15314;BME280;7757;52.626;4.746;2023-09-08T05:02:20;101502.88;;;26.84;57.63
15314;BME280;7757;52.626;4.746;2023-09-08T05:04:45;101505.63;;;26.84;57.73
15314;BME280;7757;52.626;4.746;2023-09-08T05:07:11;101442.00;;;26.46;57.80
15314;BME280;7757;52.626;4.746;2023-09-08T05:09:38;101506.75;;;26.83;57.72
15314;BME280;7757;52.626;4.746;2023-09-08T05:12:03;101505.91;;;26.82;57.54
15314;BME280;7757;52.626;4.746;2023-09-08T05:14:29;101498.50;;;26.78;57.60
15314;BME280;7757;52.626;4.746;2023-09-08T05:16:54;101504.78;;;26.78;57.36
15314;BME280;7757;52.626;4.746;2023-09-08T05:19:22;101504.78;;;26.78;57.68
15314;BME280;7757;52.626;4.746;2023-09-08T05:21:50;101382.22;;;26.03;57.84
15314;BME280;7757;52.626;4.746;2023-09-08T05:24:15;101500.41;;;26.77;57.59
15314;BME280;7757;52.626;4.746;2023-09-08T05:26:41;101513.84;;;26.74;57.82
15314;BME280;7757;52.626;4.746;2023-09-08T05:29:06;101492.47;;;26.60;57.71
15314;BME280;7757;52.626;4.746;2023-09-08T05:31:32;101518.78;;;26.77;57.96
15314;BME280;7757;52.626;4.746;2023-09-08T05:33:57;101510.56;;;26.77;57.52
15314;BME280;7757;52.626;4.746;2023-09-08T05:36:23;101508.06;;;26.75;57.75
15314;BME280;7757;52.626;4.746;2023-09-08T05:38:48;101471.34;;;26.46;57.17
15314;BME280;7757;52.626;4.746;2023-09-08T05:41:13;101519.59;;;26.72;57.58
15314;BME280;7757;52.626;4.746;2023-09-08T05:43:39;101522.09;;;26.74;57.77
15314;BME280;7757;52.626;4.746;2023-09-08T05:46:04;101525.66;;;26.74;57.59
15314;BME280;7757;52.626;4.746;2023-09-08T05:48:30;101522.63;;;26.76;57.44
15314;BME280;7757;52.626;4.746;2023-09-08T05:50:55;101527.59;;;26.74;57.48
15314;BME280;7757;52.626;4.746;2023-09-08T05:53:20;101523.72;;;26.70;57.61
15314;BME280;7757;52.626;4.746;2023-09-08T05:55:46;101532.53;;;26.72;57.57
15314;BME280;7757;52.626;4.746;2023-09-08T05:58:11;101533.63;;;26.71;57.38
15314;BME280;7757;52.626;4.746;2023-09-08T06:00:37;101525.13;;;26.67;57.58
15314;BME280;7757;52.626;4.746;2023-09-08T06:03:02;101533.34;;;26.72;57.47
15314;BME280;7757;52.626;4.746;2023-09-08T06:05:28;101532.78;;;26.70;57.38
15314;BME280;7757;52.626;4.746;2023-09-08T06:07:54;101539.94;;;26.71;57.48
15314;BME280;7757;52.626;4.746;2023-09-08T06:10:19;101540.75;;;26.67;57.32
15314;BME280;7757;52.626;4.746;2023-09-08T06:12:45;101545.97;;;26.68;57.57
15314;BME280;7757;52.626;4.746;2023-09-08T06:15:10;101552.84;;;26.71;57.68
15314;BME280;7757;52.626;4.746;2023-09-08T06:17:35;101540.22;;;26.65;57.40
15314;BME280;7757;52.626;4.746;2023-09-08T06:20:01;101548.44;;;26.65;57.48
15314;BME280;7757;52.626;4.746;2023-09-08T06:22:27;101546.78;;;26.63;57.42
15314;BME280;7757;52.626;4.746;2023-09-08T06:24:52;101536.91;;;26.57;57.74
15314;BME280;7757;52.626;4.746;2023-09-08T06:27:17;101434.03;;;25.94;57.38
15314;BME280;7757;52.626;4.746;2023-09-08T06:29:43;101544.59;;;26.71;57.41
15314;BME280;7757;52.626;4.746;2023-09-08T06:32:10;101421.16;;;25.95;57.33
15314;BME280;7757;52.626;4.746;2023-09-08T06:34:35;101549.81;;;26.72;57.32
15314;BME280;7757;52.626;4.746;2023-09-08T06:37:01;101439.78;;;26.08;57.13
15314;BME280;7757;52.626;4.746;2023-09-08T06:39:27;101550.66;;;26.78;57.11
15314;BME280;7757;52.626;4.746;2023-09-08T06:41:52;101557.78;;;26.84;57.15
15314;BME280;7757;52.626;4.746;2023-09-08T06:44:19;101433.22;;;26.09;56.65
15314;BME280;7757;52.626;4.746;2023-09-08T06:46:45;101555.88;;;26.79;56.81
15314;BME280;7757;52.626;4.746;2023-09-08T06:49:10;101549.00;;;26.82;57.13
15314;BME280;7757;52.626;4.746;2023-09-08T06:51:36;101546.78;;;26.79;57.08
15314;BME280;7757;52.626;4.746;2023-09-08T06:54:02;101545.16;;;26.83;56.84
15314;BME280;7757;52.626;4.746;2023-09-08T06:56:28;101540.22;;;26.85;56.93
15314;BME280;7757;52.626;4.746;2023-09-08T06:58:53;101531.16;;;26.84;56.70
15314;BME280;7757;52.626;4.746;2023-09-08T07:01:19;101544.88;;;26.84;56.69
15314;BME280;7757;52.626;4.746;2023-09-08T07:03:44;101544.91;;;26.89;56.68
15314;BME280;7757;52.626;4.746;2023-09-08T07:06:10;101548.72;;;26.93;56.50
15314;BME280;7757;52.626;4.746;2023-09-08T07:08:35;101535.81;;;26.84;56.83
15314;BME280;7757;52.626;4.746;2023-09-08T07:11:01;101552.03;;;26.95;56.67
15314;BME280;7757;52.626;4.746;2023-09-08T07:13:26;101556.69;;;26.95;56.76
15314;BME280;7757;52.626;4.746;2023-09-08T07:15:52;101556.41;;;26.96;56.57
15314;BME280;7757;52.626;4.746;2023-09-08T07:18:17;101553.09;;;26.99;56.39
15314;BME280;7757;52.626;4.746;2023-09-08T07:20:46;101566.28;;;27.02;56.30
15314;BME280;7757;52.626;4.746;2023-09-08T07:23:12;101551.72;;;27.07;55.99
15314;BME280;7757;52.626;4.746;2023-09-08T07:25:38;101516.31;;;26.75;56.44
15314;BME280;7757;52.626;4.746;2023-09-08T07:28:04;101558.31;;;27.01;55.90
15314;BME280;7757;52.626;4.746;2023-09-08T07:30:31;101556.91;;;27.08;56.23
15314;BME280;7757;52.626;4.746;2023-09-08T07:32:57;101561.88;;;27.06;56.40
15314;BME280;7757;52.626;4.746;2023-09-08T07:35:23;101551.44;;;27.08;56.17
15314;BME280;7757;52.626;4.746;2023-09-08T07:37:49;101551.16;;;27.15;56.14
15314;BME280;7757;52.626;4.746;2023-09-08T07:40:15;101498.22;;;26.79;55.94
15314;BME280;7757;52.626;4.746;2023-09-08T07:42:40;101545.09;;;27.18;55.78
15314;BME280;7757;52.626;4.746;2023-09-08T07:45:06;101563.22;;;27.24;56.07
15314;BME280;7757;52.626;4.746;2023-09-08T07:47:32;101559.34;;;27.25;56.00
15314;BME280;7757;52.626;4.746;2023-09-08T07:50:36;101557.72;;;27.24;55.86
15314;BME280;7757;52.626;4.746;2023-09-08T07:53:01;101549.44;;;27.29;55.85
15314;BME280;7757;52.626;4.746;2023-09-08T07:55:27;101557.09;;;27.37;55.53
15314;BME280;7757;52.626;4.746;2023-09-08T07:57:53;101552.50;;;27.17;55.93
15314;BME280;7757;52.626;4.746;2023-09-08T08:00:18;101552.78;;;27.21;56.15
15314;BME280;7757;52.626;4.746;2023-09-08T08:02:50;101554.91;;;27.39;55.76
15314;BME280;7757;52.626;4.746;2023-09-08T08:05:16;101548.34;;;27.25;55.58
15314;BME280;7757;52.626;4.746;2023-09-08T08:07:43;101564.28;;;27.28;55.97
15314;BME280;7757;52.626;4.746;2023-09-08T08:10:09;101471.31;;;26.81;55.48
15314;BME280;7757;52.626;4.746;2023-09-08T08:12:36;101561.25;;;27.40;55.86
15314;BME280;7757;52.626;4.746;2023-09-08T08:15:02;101553.28;;;27.33;56.20
15314;BME280;7757;52.626;4.746;2023-09-08T08:17:27;101558.22;;;27.46;55.56
15314;BME280;7757;52.626;4.746;2023-09-08T08:19:56;101559.31;;;27.35;55.80
15314;BME280;7757;52.626;4.746;2023-09-08T08:22:24;101556.28;;;27.47;55.94
15314;BME280;7757;52.626;4.746;2023-09-08T08:24:49;101554.91;;;27.39;55.74
15314;BME280;7757;52.626;4.746;2023-09-08T08:27:15;101554.09;;;27.44;55.73
15314;BME280;7757;52.626;4.746;2023-09-08T08:29:40;101557.66;;;27.54;55.42
15314;BME280;7757;52.626;4.746;2023-09-08T08:32:06;101546.34;;;27.56;55.53
15314;BME280;7757;52.626;4.746;2023-09-08T08:34:31;101555.63;;;27.70;55.37
15314;BME280;7757;52.626;4.746;2023-09-08T08:36:56;101555.63;;;27.70;55.24
15314;BME280;7757;52.626;4.746;2023-09-08T08:39:22;101556.88;;;27.98;54.68
15314;BME280;7757;52.626;4.746;2023-09-08T08:41:47;101550.28;;;27.94;55.01
15314;BME280;7757;52.626;4.746;2023-09-08T08:44:13;101563.88;;;28.24;54.16
15314;BME280;7757;52.626;4.746;2023-09-08T08:46:41;101564.69;;;28.24;54.02
15314;BME280;7757;52.626;4.746;2023-09-08T08:49:07;101558.44;;;28.14;54.36
15314;BME280;7757;52.626;4.746;2023-09-08T08:51:35;101502.97;;;27.97;53.68
15314;BME280;7757;52.626;4.746;2023-09-08T08:54:01;101556.59;;;28.04;54.35
15314;BME280;7757;52.626;4.746;2023-09-08T08:56:30;101567.81;;;28.13;54.49
15314;BME280;7757;52.626;4.746;2023-09-08T08:58:57;101566.19;;;28.07;54.38
15314;BME280;7757;52.626;4.746;2023-09-08T09:01:24;101561.28;;;27.99;54.91
15314;BME280;7757;52.626;4.746;2023-09-08T09:03:51;101521.38;;;27.96;53.78
15314;BME280;7757;52.626;4.746;2023-09-08T09:06:18;101519.44;;;28.07;53.81
15314;BME280;7757;52.626;4.746;2023-09-08T09:08:44;101571.88;;;28.20;54.40
15314;BME280;7757;52.626;4.746;2023-09-08T09:11:10;101567.50;;;28.14;54.28
15314;BME280;7757;52.626;4.746;2023-09-08T09:13:36;101580.13;;;28.20;54.44
15314;BME280;7757;52.626;4.746;2023-09-08T09:16:02;101567.09;;;28.36;53.87
15314;BME280;7757;52.626;4.746;2023-09-08T09:18:32;101521.06;;;28.03;53.54
15314;BME280;7757;52.626;4.746;2023-09-08T09:21:00;101578.88;;;28.42;54.38
15314;BME280;7757;52.626;4.746;2023-09-08T09:23:27;101569.75;;;28.46;54.09
15314;BME280;7757;52.626;4.746;2023-09-08T09:25:53;101582.19;;;28.39;54.59
15314;BME280;7757;52.626;4.746;2023-09-08T09:28:18;101579.44;;;28.39;54.07
15314;BME280;7757;52.626;4.746;2023-09-08T09:30:49;101571.59;;;28.61;54.00
15314;BME280;7757;52.626;4.746;2023-09-08T09:33:14;101571.44;;;28.76;53.50
15314;BME280;7757;52.626;4.746;2023-09-08T09:35:48;101574.78;;;28.73;53.26
15314;BME280;7757;52.626;4.746;2023-09-08T09:38:18;101573.31;;;28.52;54.33
15314;BME280;7757;52.626;4.746;2023-09-08T09:40:45;101575.09;;;28.71;53.83
15314;BME280;7757;52.626;4.746;2023-09-08T09:43:11;101571.84;;;28.64;54.94
15314;BME280;7757;52.626;4.746;2023-09-08T09:45:38;101570.03;;;29.60;55.38
15314;BME280;7757;52.626;4.746;2023-09-08T09:48:05;101563.63;;;29.64;51.58
15314;BME280;7757;52.626;4.746;2023-09-08T09:50:35;101571.69;;;29.37;53.67
15314;BME280;7757;52.626;4.746;2023-09-08T09:53:07;101515.81;;;29.31;51.61
15314;BME280;7757;52.626;4.746;2023-09-08T09:55:33;101563.44;;;29.37;52.77
15314;BME280;7757;52.626;4.746;2023-09-08T09:58:01;101562.78;;;30.06;52.67
15314;BME280;7757;52.626;4.746;2023-09-08T10:00:30;101561.38;;;30.09;50.79
15314;BME280;7757;52.626;4.746;2023-09-08T10:02:57;101515.94;;;28.93;53.15
15314;BME280;7757;52.626;4.746;2023-09-08T10:05:26;101461.38;;;28.42;53.86
15314;BME280;7757;52.626;4.746;2023-09-08T10:07:52;101560.88;;;28.88;54.46
15314;BME280;7757;52.626;4.746;2023-09-08T10:10:18;101508.31;;;29.08;55.17
15314;BME280;7757;52.626;4.746;2023-09-08T10:12:45;101548.28;;;29.58;53.68
15314;BME280;7757;52.626;4.746;2023-09-08T10:15:12;101559.88;;;30.35;53.33
15314;BME280;7757;52.626;4.746;2023-09-08T10:17:40;101554.75;;;30.10;53.39
15314;BME280;7757;52.626;4.746;2023-09-08T10:20:07;101554.91;;;30.69;50.80
15314;BME280;7757;52.626;4.746;2023-09-08T10:22:38;101551.53;;;30.72;52.34
15314;BME280;7757;52.626;4.746;2023-09-08T10:25:07;101554.50;;;30.25;51.60
15314;BME280;7757;52.626;4.746;2023-09-08T10:27:33;101556.56;;;29.58;53.49
15314;BME280;7757;52.626;4.746;2023-09-08T10:30:02;101560.84;;;29.46;52.95
15314;BME280;7757;52.626;4.746;2023-09-08T10:32:30;101477.22;;;28.84;53.08
15314;BME280;7757;52.626;4.746;2023-09-08T10:34:57;101500.78;;;28.95;53.35
15314;BME280;7757;52.626;4.746;2023-09-08T10:37:25;101504.38;;;30.18;52.30
15314;BME280;7757;52.626;4.746;2023-09-08T10:39:52;101563.63;;;30.76;50.42
15314;BME280;7757;52.626;4.746;2023-09-08T10:42:20;101463.03;;;28.96;52.87
15314;BME280;7757;52.626;4.746;2023-09-08T10:47:25;101565.97;;;29.76;52.96
15314;BME280;7757;52.626;4.746;2023-09-08T10:49:51;101566.72;;;30.56;51.92
15314;BME280;7757;52.626;4.746;2023-09-08T10:52:21;101566.75;;;30.19;51.74
15314;BME280;7757;52.626;4.746;2023-09-08T10:54:48;101517.81;;;30.24;50.60
15314;BME280;7757;52.626;4.746;2023-09-08T10:57:16;101571.97;;;30.58;50.69
15314;BME280;7757;52.626;4.746;2023-09-08T10:59:51;101570.16;;;30.29;51.30
15314;BME280;7757;52.626;4.746;2023-09-08T11:02:41;101566.59;;;29.92;52.29
15314;BME280;7757;52.626;4.746;2023-09-08T11:05:11;101572.38;;;30.65;51.58
15314;BME280;7757;52.626;4.746;2023-09-08T11:07:39;101562.03;;;30.57;50.91
15314;BME280;7757;52.626;4.746;2023-09-08T11:10:06;101571.47;;;30.69;50.72
15314;BME280;7757;52.626;4.746;2023-09-08T11:12:33;101513.41;;;30.42;50.74
15314;BME280;7757;52.626;4.746;2023-09-08T11:15:02;101560.53;;;30.64;51.16
15314;BME280;7757;52.626;4.746;2023-09-08T11:17:33;101565.41;;;30.35;51.41
15314;BME280;7757;52.626;4.746;2023-09-08T11:20:00;101564.75;;;29.87;52.99
15314;BME280;7757;52.626;4.746;2023-09-08T11:22:26;101559.97;;;29.93;53.03
15314;BME280;7757;52.626;4.746;2023-09-08T11:24:53;101566.16;;;29.61;54.19
15314;BME280;7757;52.626;4.746;2023-09-08T11:27:19;101574.50;;;29.98;52.78
15314;BME280;7757;52.626;4.746;2023-09-08T11:29:46;101561.31;;;29.95;53.35
15314;BME280;7757;52.626;4.746;2023-09-08T11:32:12;101568.72;;;29.76;53.50
15314;BME280;7757;52.626;4.746;2023-09-08T11:34:37;101572.88;;;29.73;53.75
15314;BME280;7757;52.626;4.746;2023-09-08T11:37:13;101567.34;;;29.73;53.60
15314;BME280;7757;52.626;4.746;2023-09-08T11:39:44;101561.81;;;29.97;52.75
15314;BME280;7757;52.626;4.746;2023-09-08T11:42:12;101572.66;;;29.94;53.03
15314;BME280;7757;52.626;4.746;2023-09-08T11:44:38;101565.31;;;30.03;52.86
15314;BME280;7757;52.626;4.746;2023-09-08T11:47:06;101569.75;;;30.22;52.67
15314;BME280;7757;52.626;4.746;2023-09-08T11:49:52;101559.28;;;30.19;52.66
15314;BME280;7757;52.626;4.746;2023-09-08T11:52:18;101473.88;;;29.53;52.97
15314;BME280;7757;52.626;4.746;2023-09-08T11:54:43;101570.25;;;30.24;52.39
15314;BME280;7757;52.626;4.746;2023-09-08T11:57:09;101571.53;;;30.13;53.39
15314;BME280;7757;52.626;4.746;2023-09-08T11:59:37;101576.66;;;30.01;53.58
15314;BME280;7757;52.626;4.746;2023-09-08T12:02:03;101577.72;;;30.05;53.33
15314;BME280;7757;52.626;4.746;2023-09-08T12:04:28;101568.91;;;30.22;52.77
15314;BME280;7757;52.626;4.746;2023-09-08T12:06:54;101518.66;;;29.88;53.40
15314;BME280;7757;52.626;4.746;2023-09-08T12:09:23;101570.63;;;29.99;53.82
15314;BME280;7757;52.626;4.746;2023-09-08T12:11:49;101561.44;;;30.04;53.32
15314;BME280;7757;52.626;4.746;2023-09-08T12:14:15;101566.94;;;29.85;54.40
15314;BME280;7757;52.626;4.746;2023-09-08T12:16:41;101560.25;;;29.91;53.91
15314;BME280;7757;52.626;4.746;2023-09-08T12:19:08;101558.53;;;29.95;54.25
15314;BME280;7757;52.626;4.746;2023-09-08T12:21:58;101565.56;;;29.88;54.31
15314;BME280;7757;52.626;4.746;2023-09-08T12:25:16;101571.81;;;29.93;54.14
15314;BME280;7757;52.626;4.746;2023-09-08T12:27:36;101560.84;;;30.07;53.89
15314;BME280;7757;52.626;4.746;2023-09-08T12:30:02;101564.06;;;30.14;53.68
15314;BME280;7757;52.626;4.746;2023-09-08T12:32:31;101558.25;;;29.97;53.87
15314;BME280;7757;52.626;4.746;2023-09-08T12:34:58;101481.56;;;29.56;53.71
15314;BME280;7757;52.626;4.746;2023-09-08T12:37:25;101556.69;;;30.09;53.46
15314;BME280;7757;52.626;4.746;2023-09-08T12:39:53;101553.00;;;30.32;53.11
15314;BME280;7757;52.626;4.746;2023-09-08T12:42:18;101552.28;;;30.46;53.07
15314;BME280;7757;52.626;4.746;2023-09-08T12:44:45;101546.16;;;30.49;53.28
15314;BME280;7757;52.626;4.746;2023-09-08T12:47:11;101507.47;;;29.98;53.47
15314;BME280;7757;52.626;4.746;2023-09-08T12:49:39;101551.09;;;30.14;54.01
15314;BME280;7757;52.626;4.746;2023-09-08T12:52:05;101550.84;;;30.29;53.49
15314;BME280;7757;52.626;4.746;2023-09-08T12:54:31;101503.16;;;29.92;53.83
15314;BME280;7757;52.626;4.746;2023-09-08T12:56:56;101549.22;;;29.91;54.01
15314;BME280;7757;52.626;4.746;2023-09-08T12:59:21;101538.13;;;29.96;53.96
15314;BME280;7757;52.626;4.746;2023-09-08T13:01:47;101523.19;;;29.97;53.34
15314;BME280;7757;52.626;4.746;2023-09-08T13:04:12;101517.53;;;29.88;54.21